Lodgepole, SD (57640)

9:18 AM MST on February 06, 2016 (GMT -0700)
Hettinger Municipal | | Change Station
CLOSE
Current Station
Airport
Location: Hettinger,
Elevation: 2703 ft
Nearby Weather Stations
Active Advisory: High Wind Warning

Elev 2703 ft 46.01 °N, 102.66 °W | Updated 1 hour ago

Partly Cloudy
Partly Cloudy
36 °F
Feels Like 28 °F
N
10
Wind Variable Wind from West

Today
High -- | Low -- °F
--% Chance of Precip.
Yesterday
High -- | Low -- °F
Precip. -- in
Pressure 29.97 in
Visibility 10.0 miles
Clouds Clear
Windchill 28 °F
Dew Point 20 °F
Humidity 52%
Rainfall 0.00 in
Snow Depth Not available.
7:07 AM 5:03 PM
Waning Crescent, 5% visible
METAR KHEI 061453Z AUTO 27009KT 10SM CLR 02/M07 A2989 RMK AO2 SLP148 T00221067 56010
Pressure 29.97 in
Visibility 10.0 miles
Clouds Clear
Windchill 28 °F
Dew Point 20 °F
Humidity 52%
Rainfall 0.00 in
Snow Depth Not available.
7:07 AM 5:03 PM
Waning Crescent, 5% visible
METAR KHEI 061453Z AUTO 27009KT 10SM CLR 02/M07 A2989 RMK AO2 SLP148 T00221067 56010

10-Day Weather Forecast

Almanac

Astronomy

Feb. 06, 2016 Rise Set
Actual Time
Civil Twilight
Nautical Twilight
Astronomical Twilight
Moon
Length of Visible Light
Length of Day
Tomorrow will be .
, % of the Moon is Illuminated

Today's Extremes

State Highs State Lows

Community

WunderPhotos

Upload Photos

1,891,004 photos uploaded!

WunderBlog® & News

Nearby

Air Quality

  Air Quality AQ Index Pollutant
Not available.

Snow Depth

Station Depth Elevation

Earthquake Activity

City Distance Mag. Time & Date
Minimum magnitude displayed is 2.5.

Coastal Water Temperatures

Place Temperature

Stations

Nearby Weather Stations

Station Location Temp. Windchill Dew Point Humidity Wind Precip. Elev Updated Type
                   

Watches & Warnings

High Wind Warning
Issued: 4:33 AM MST Feb. 6, 2016 – National Weather Service

... High Wind Warning remains in effect from 2 PM this afternoon
to 8 PM MST Sunday...

* timing... this afternoon through Sunday evening. The strongest
winds are expected Sunday.

* Winds... northwest 40 to 50 mph with gusts up to 75 mph.

* Impacts... the high winds can blow down large trees... and
damage roofs... small outbuildings... and signs. Sudden wind
gusts can cause drivers to lose control... especially in
lightweight or high profile vehicles. Strong winds can cause
blowing dust... reduced visibility... and flying debris.